createdAt,value
2022-12-16T00:02:22.592Z,79.40
2022-12-16T00:04:50.479Z,83.20
2022-12-16T00:07:18.341Z,89.70
2022-12-16T00:09:46.154Z,85.60
2022-12-16T00:12:13.950Z,85.60
2022-12-16T00:14:41.612Z,91.00
2022-12-16T00:17:09.344Z,92.30
2022-12-16T00:19:37.093Z,87.70
2022-12-16T00:22:04.828Z,85.80
2022-12-16T00:24:32.576Z,74.90
2022-12-16T00:27:00.359Z,75.50
2022-12-16T00:29:28.171Z,75.40
2022-12-16T00:31:55.932Z,72.20
2022-12-16T00:34:23.683Z,71.00
2022-12-16T00:36:51.943Z,72.90
2022-12-16T00:39:20.097Z,79.00
2022-12-16T00:41:47.822Z,75.40
2022-12-16T00:44:15.510Z,76.40
2022-12-16T00:46:43.377Z,72.70
2022-12-16T00:49:11.180Z,74.50
2022-12-16T00:51:38.926Z,72.90
2022-12-16T00:54:06.745Z,67.40
2022-12-16T00:56:35.085Z,70.10
2022-12-16T00:59:02.854Z,75.60
2022-12-16T01:01:30.844Z,71.00
2022-12-16T01:03:58.792Z,76.90
2022-12-16T01:06:26.616Z,83.70
2022-12-16T01:08:54.961Z,79.70
2022-12-16T01:11:22.849Z,80.00
2022-12-16T01:13:52.255Z,75.70
2022-12-16T01:16:20.253Z,78.40
2022-12-16T01:18:48.085Z,75.30
2022-12-16T01:21:15.936Z,75.90
2022-12-16T01:23:43.774Z,78.90
2022-12-16T01:26:16.300Z,76.00
2022-12-16T01:28:45.280Z,74.60
2022-12-16T01:31:15.788Z,75.50
2022-12-16T01:33:44.028Z,75.00
2022-12-16T01:36:11.747Z,74.00
2022-12-16T01:38:42.527Z,75.50
2022-12-16T01:41:11.581Z,74.90
2022-12-16T01:43:41.286Z,74.80
2022-12-16T01:46:12.311Z,71.00
2022-12-16T01:48:52.925Z,74.50
2022-12-16T01:51:31.337Z,74.70
2022-12-16T01:54:03.899Z,71.80
2022-12-16T01:56:33.173Z,70.60
2022-12-16T01:59:01.888Z,71.00
2022-12-16T02:01:29.882Z,66.40
2022-12-16T02:03:58.894Z,66.50
2022-12-16T02:06:26.799Z,62.80
2022-12-16T02:08:57.364Z,64.70
2022-12-16T02:12:03.053Z,66.30
2022-12-16T02:14:47.104Z,68.60
2022-12-16T02:17:25.481Z,70.80
2022-12-16T02:20:21.222Z,69.20
2022-12-16T02:23:50.616Z,67.70
2022-12-16T02:26:32.008Z,68.60
2022-12-16T02:30:04.494Z,67.60
2022-12-16T02:32:53.627Z,69.80
2022-12-16T02:35:43.039Z,67.20
2022-12-16T02:38:36.325Z,66.30
2022-12-16T02:41:17.583Z,67.90
2022-12-16T02:44:07.356Z,70.80
2022-12-16T02:46:41.136Z,68.20
2022-12-16T02:49:28.856Z,69.20
2022-12-16T02:51:58.471Z,70.60
2022-12-16T02:54:27.904Z,72.10
2022-12-16T02:57:07.618Z,76.60
2022-12-16T03:00:13.080Z,74.00
2022-12-16T03:02:59.923Z,75.70
2022-12-16T03:05:34.166Z,76.20
2022-12-16T03:08:09.093Z,79.60
2022-12-16T03:10:57.961Z,81.30
2022-12-16T03:13:30.272Z,77.60
2022-12-16T03:16:00.411Z,75.60
2022-12-16T03:18:28.524Z,79.50
2022-12-16T03:21:02.950Z,78.00
2022-12-16T03:23:40.158Z,83.80
2022-12-16T03:26:12.384Z,83.00
2022-12-16T03:28:46.256Z,77.40
2022-12-16T03:31:26.806Z,77.30
2022-12-16T03:34:04.817Z,79.20
2022-12-16T03:36:35.088Z,78.20
2022-12-16T03:39:04.457Z,75.70
2022-12-16T03:41:32.787Z,78.50
2022-12-16T03:44:00.685Z,81.50
2022-12-16T03:46:28.576Z,79.20
2022-12-16T03:48:56.352Z,78.90
2022-12-16T03:51:24.382Z,77.30
2022-12-16T03:53:52.046Z,81.40
2022-12-16T03:56:19.832Z,79.20
2022-12-16T03:58:47.731Z,81.00
2022-12-16T04:01:15.650Z,79.60
2022-12-16T04:03:43.485Z,82.40
2022-12-16T04:06:11.233Z,83.80
2022-12-16T04:08:38.919Z,85.30
2022-12-16T04:11:25.522Z,84.40
2022-12-16T04:14:12.028Z,86.20
2022-12-16T04:16:58.623Z,87.30
2022-12-16T04:19:48.070Z,86.20
2022-12-16T04:22:39.235Z,84.80
2022-12-16T04:25:14.479Z,85.70
2022-12-16T04:27:47.121Z,88.20
2022-12-16T04:30:20.127Z,91.50
2022-12-16T04:33:13.456Z,86.60
2022-12-16T04:36:00.036Z,93.90
2022-12-16T04:38:46.693Z,89.50
2022-12-16T04:41:33.265Z,88.80
2022-12-16T04:44:19.868Z,83.60
2022-12-16T04:47:07.114Z,81.70
2022-12-16T04:49:53.845Z,84.00
2022-12-16T04:52:40.454Z,80.80
2022-12-16T04:55:28.591Z,82.70
2022-12-16T04:58:20.155Z,77.90
2022-12-16T05:01:07.719Z,80.50
2022-12-16T05:03:54.523Z,79.30
2022-12-16T05:06:41.109Z,79.80
2022-12-16T05:09:27.605Z,84.70
2022-12-16T05:12:14.132Z,86.10
2022-12-16T05:15:00.613Z,80.70
2022-12-16T05:17:47.183Z,84.60
2022-12-16T05:20:33.737Z,91.00
2022-12-16T05:23:20.252Z,92.50
2022-12-16T05:26:06.828Z,90.10
2022-12-16T05:28:53.491Z,92.90
2022-12-16T05:31:39.958Z,94.10
2022-12-16T05:34:27.521Z,97.90
2022-12-16T05:37:14.099Z,88.20
2022-12-16T05:40:00.745Z,94.70
2022-12-16T05:42:47.376Z,85.50
2022-12-16T05:45:33.931Z,90.10
2022-12-16T05:48:20.590Z,90.60
2022-12-16T05:51:07.133Z,81.20
2022-12-16T05:53:53.935Z,82.70
2022-12-16T05:56:40.438Z,83.00
2022-12-16T05:59:26.870Z,81.30
2022-12-16T06:02:13.691Z,89.00
2022-12-16T06:05:00.387Z,87.20
2022-12-16T06:07:47.101Z,82.30
2022-12-16T06:10:34.022Z,83.90
2022-12-16T06:13:20.681Z,79.80
2022-12-16T06:16:09.191Z,72.90
2022-12-16T06:18:56.069Z,78.00
2022-12-16T06:21:42.828Z,74.70
2022-12-16T06:24:29.314Z,88.40
2022-12-16T06:27:15.819Z,80.70
2022-12-16T06:30:02.515Z,80.00
2022-12-16T06:32:49.043Z,79.40
2022-12-16T06:35:35.714Z,80.30
2022-12-16T06:38:22.237Z,77.60
2022-12-16T06:41:08.817Z,74.50
2022-12-16T06:43:55.469Z,72.80
2022-12-16T06:46:46.317Z,74.40
2022-12-16T06:49:32.913Z,86.80
2022-12-16T06:52:21.501Z,74.60
2022-12-16T06:55:11.365Z,71.60
2022-12-16T06:57:57.908Z,71.20
2022-12-16T07:00:44.271Z,71.80
2022-12-16T07:03:35.538Z,71.60
2022-12-16T07:06:22.746Z,80.60
2022-12-16T07:09:09.383Z,83.50
2022-12-16T07:11:55.997Z,80.80
2022-12-16T07:14:42.565Z,82.00
2022-12-16T07:17:29.031Z,79.50
2022-12-16T07:20:15.567Z,77.40
2022-12-16T07:23:11.854Z,77.30
2022-12-16T07:26:02.534Z,81.20
2022-12-16T07:28:49.018Z,74.00
2022-12-16T07:31:35.748Z,81.10
2022-12-16T07:34:22.460Z,79.60
2022-12-16T07:37:08.986Z,80.90
2022-12-16T07:39:55.749Z,78.40
2022-12-16T07:42:43.109Z,82.90
2022-12-16T07:45:29.938Z,77.80
2022-12-16T07:48:16.585Z,82.20
2022-12-16T07:51:03.240Z,73.30
2022-12-16T07:53:49.716Z,75.60
2022-12-16T07:56:36.253Z,79.40
2022-12-16T07:59:23.007Z,76.10
2022-12-16T08:02:09.578Z,78.00
2022-12-16T08:04:56.278Z,78.40
2022-12-16T08:07:42.805Z,92.90
2022-12-16T08:10:29.401Z,78.50
2022-12-16T08:13:25.371Z,72.20
2022-12-16T08:16:12.723Z,76.20
2022-12-16T08:18:59.457Z,77.70
2022-12-16T08:21:46.212Z,79.70
2022-12-16T08:24:32.738Z,80.40
2022-12-16T08:27:19.241Z,76.30
2022-12-16T08:30:05.836Z,75.20
2022-12-16T08:32:57.171Z,77.50
2022-12-16T08:35:45.619Z,76.40
2022-12-16T08:38:32.237Z,78.40
2022-12-16T08:41:18.799Z,78.80
2022-12-16T08:44:05.252Z,73.60
2022-12-16T08:46:51.729Z,77.30
2022-12-16T08:49:38.478Z,78.20
2022-12-16T08:52:25.184Z,76.40
2022-12-16T08:55:11.895Z,75.70
2022-12-16T08:57:59.847Z,74.30
2022-12-16T09:00:46.360Z,76.70
2022-12-16T09:03:33.309Z,79.20
2022-12-16T09:06:19.997Z,76.40
2022-12-16T09:09:06.562Z,77.10
2022-12-16T09:11:53.115Z,74.20
2022-12-16T09:14:39.750Z,77.70
2022-12-16T09:17:26.229Z,76.60
2022-12-16T09:20:12.679Z,78.30
2022-12-16T09:22:59.453Z,78.20
2022-12-16T09:25:45.997Z,76.90
2022-12-16T09:28:32.557Z,77.70
2022-12-16T09:31:19.448Z,78.00
2022-12-16T09:34:05.943Z,80.60
2022-12-16T09:36:52.458Z,79.20
2022-12-16T09:39:39.458Z,73.90
2022-12-16T09:43:02.416Z,81.00
2022-12-16T09:45:56.934Z,78.90
2022-12-16T09:49:07.125Z,76.60
2022-12-16T09:51:54.744Z,74.80
2022-12-16T09:54:45.623Z,77.70
2022-12-16T09:57:32.891Z,81.80
2022-12-16T10:00:21.486Z,80.10
2022-12-16T10:03:08.824Z,76.70
2022-12-16T10:06:19.653Z,76.20
2022-12-16T10:09:13.544Z,75.10
2022-12-16T10:12:16.706Z,78.10
2022-12-16T10:15:12.638Z,81.40
2022-12-16T10:18:01.603Z,75.30
2022-12-16T10:21:00.315Z,74.20
2022-12-16T10:23:49.311Z,71.60
2022-12-16T10:26:44.588Z,77.20
2022-12-16T10:29:39.887Z,76.70
2022-12-16T10:32:50.989Z,77.20
2022-12-16T10:36:04.847Z,76.10
2022-12-16T10:38:59.052Z,76.30
2022-12-16T10:41:51.221Z,76.10
2022-12-16T10:44:42.913Z,76.30
2022-12-16T10:47:30.096Z,74.10
2022-12-16T10:50:17.295Z,77.90
2022-12-16T10:53:10.604Z,73.60
2022-12-16T10:56:05.593Z,76.40
2022-12-16T10:59:06.242Z,75.90
2022-12-16T11:01:52.759Z,74.90
2022-12-16T11:04:50.992Z,71.50
2022-12-16T11:08:02.167Z,74.70
2022-12-16T11:10:59.038Z,73.60
2022-12-16T11:13:52.728Z,78.50
2022-12-16T11:16:47.705Z,78.30
2022-12-16T11:19:39.956Z,79.70
2022-12-16T11:22:33.376Z,77.20
2022-12-16T11:25:33.846Z,75.40
2022-12-16T11:28:35.134Z,81.20
2022-12-16T11:31:24.407Z,78.10
2022-12-16T11:34:12.352Z,76.40
2022-12-16T11:37:01.503Z,73.90
2022-12-16T11:39:49.609Z,79.20
2022-12-16T11:42:45.296Z,78.90
2022-12-16T11:45:34.520Z,76.00
2022-12-16T11:48:27.492Z,74.70
2022-12-16T11:51:17.033Z,77.40
2022-12-16T11:54:27.932Z,78.20
2022-12-16T11:57:14.963Z,78.30
2022-12-16T12:00:06.041Z,77.60
2022-12-16T12:03:01.237Z,76.30
2022-12-16T12:06:20.453Z,77.20
2022-12-16T12:09:25.367Z,76.80
2022-12-16T12:12:36.688Z,73.70
2022-12-16T12:15:51.799Z,76.30
2022-12-16T12:19:05.394Z,74.80
2022-12-16T12:22:05.287Z,78.20
2022-12-16T12:24:58.208Z,74.00
2022-12-16T12:27:47.775Z,79.90
2022-12-16T12:30:41.032Z,73.90
2022-12-16T12:33:39.767Z,71.90
2022-12-16T12:36:44.847Z,76.00
2022-12-16T12:39:40.785Z,73.90
2022-12-16T12:42:56.608Z,69.90
2022-12-16T12:46:20.981Z,74.80
2022-12-16T12:49:24.333Z,77.80
2022-12-16T12:52:45.473Z,79.70
2022-12-16T12:55:49.779Z,77.90
2022-12-16T12:58:37.038Z,75.10
2022-12-16T13:01:24.083Z,78.20
2022-12-16T13:04:32.313Z,80.30
2022-12-16T13:07:19.742Z,80.20
2022-12-16T13:10:46.471Z,76.70
2022-12-16T13:13:36.589Z,79.70
2022-12-16T13:16:28.336Z,78.60
2022-12-16T13:19:49.736Z,79.50
2022-12-16T13:22:47.693Z,76.50
2022-12-16T13:25:57.378Z,83.20
2022-12-16T13:28:52.557Z,84.20
2022-12-16T13:31:39.846Z,86.50
2022-12-16T13:34:46.744Z,79.00
2022-12-16T13:37:42.006Z,81.40
2022-12-16T13:40:40.400Z,86.50
2022-12-16T13:44:06.363Z,82.30
2022-12-16T13:47:04.779Z,79.10
2022-12-16T13:50:14.196Z,86.50
2022-12-16T13:53:14.676Z,83.30
2022-12-16T13:56:14.846Z,82.50
2022-12-16T13:59:04.532Z,83.00
2022-12-16T14:02:12.966Z,85.00
2022-12-16T14:05:12.005Z,84.20
2022-12-16T14:07:59.541Z,88.30
2022-12-16T14:10:49.917Z,87.60
2022-12-16T14:13:46.585Z,87.70
2022-12-16T14:16:56.630Z,88.70
2022-12-16T14:19:52.213Z,91.50
2022-12-16T14:22:41.851Z,87.00
2022-12-16T14:25:36.256Z,90.70
2022-12-16T14:28:47.745Z,86.00
2022-12-16T14:31:49.133Z,90.70
2022-12-16T14:34:40.269Z,90.50
2022-12-16T14:37:37.052Z,89.80
2022-12-16T14:40:38.886Z,88.50
2022-12-16T14:43:37.808Z,86.00
2022-12-16T14:46:24.877Z,91.20
2022-12-16T14:49:11.341Z,89.90
2022-12-16T14:52:05.451Z,88.40
2022-12-16T14:54:57.438Z,92.80
2022-12-16T14:57:48.664Z,89.60
2022-12-16T15:00:37.567Z,86.40
2022-12-16T15:03:52.289Z,89.90
2022-12-16T15:06:47.844Z,89.30
2022-12-16T15:10:01.629Z,92.70
2022-12-16T15:12:51.614Z,93.20
2022-12-16T15:15:47.207Z,96.00
2022-12-16T15:18:38.111Z,91.10
2022-12-16T15:21:26.051Z,93.80
2022-12-16T15:24:12.478Z,96.30
2022-12-16T15:26:59.034Z,96.60
2022-12-16T15:30:00.494Z,95.10
2022-12-16T15:32:48.596Z,95.30
2022-12-16T15:35:48.451Z,96.40
2022-12-16T15:38:35.102Z,95.50
2022-12-16T15:41:24.338Z,95.50
2022-12-16T15:44:10.924Z,99.40
2022-12-16T15:46:57.559Z,92.90
2022-12-16T15:50:02.058Z,98.30
2022-12-16T15:52:59.080Z,96.30
2022-12-16T15:55:59.483Z,99.20
2022-12-16T15:58:52.318Z,97.10
2022-12-16T16:01:46.581Z,96.10
2022-12-16T16:04:53.065Z,98.50
2022-12-16T16:07:42.269Z,97.60
2022-12-16T16:10:43.653Z,98.10
2022-12-16T16:13:30.422Z,95.70
2022-12-16T16:16:16.972Z,97.60
2022-12-16T16:19:03.615Z,96.40
2022-12-16T16:21:50.128Z,93.00
2022-12-16T16:24:36.753Z,95.10
2022-12-16T16:27:30.273Z,93.70
2022-12-16T16:30:19.795Z,97.00
2022-12-16T16:33:06.240Z,95.80
2022-12-16T16:35:53.178Z,93.50
2022-12-16T16:38:39.882Z,91.10
2022-12-16T16:41:33.163Z,101.80
2022-12-16T16:44:20.105Z,95.70
2022-12-16T16:47:06.775Z,99.60
2022-12-16T16:49:56.708Z,104.00
2022-12-16T16:52:44.806Z,100.30
2022-12-16T16:55:37.299Z,103.90
2022-12-16T16:58:31.912Z,101.10
2022-12-16T17:01:18.459Z,97.10
2022-12-16T17:04:04.973Z,98.30
2022-12-16T17:06:51.394Z,100.40
2022-12-16T17:09:37.924Z,98.30
2022-12-16T17:12:59.942Z,97.80
2022-12-16T17:15:53.966Z,101.70
2022-12-16T17:18:45.617Z,99.10
2022-12-16T17:21:34.388Z,103.70
2022-12-16T17:24:20.949Z,99.50
2022-12-16T17:27:07.418Z,107.10
2022-12-16T17:29:53.817Z,96.90
2022-12-16T17:32:40.360Z,96.50
2022-12-16T17:35:31.870Z,100.50
2022-12-16T17:38:21.412Z,99.70
2022-12-16T17:41:11.662Z,100.60
2022-12-16T17:43:58.204Z,95.50
2022-12-16T17:46:44.768Z,94.30
2022-12-16T17:49:31.435Z,94.70
2022-12-16T17:52:18.109Z,92.60
2022-12-16T17:55:04.702Z,95.60
2022-12-16T17:57:51.310Z,95.40
2022-12-16T18:00:37.798Z,94.40
2022-12-16T18:03:24.469Z,94.50
2022-12-16T18:06:16.206Z,98.10
2022-12-16T18:09:22.541Z,96.70
2022-12-16T18:12:08.905Z,93.40
2022-12-16T18:14:55.476Z,96.00
2022-12-16T18:17:42.030Z,97.00
2022-12-16T18:20:28.720Z,91.20
2022-12-16T18:23:15.188Z,94.30
2022-12-16T18:26:01.769Z,95.20
2022-12-16T18:28:48.895Z,90.20
2022-12-16T18:31:35.530Z,97.70
2022-12-16T18:34:22.069Z,98.60
2022-12-16T18:37:08.659Z,98.30
2022-12-16T18:39:55.023Z,98.80
2022-12-16T18:42:41.628Z,98.10
2022-12-16T18:45:28.674Z,92.20
2022-12-16T18:48:15.128Z,91.90
2022-12-16T18:51:01.592Z,92.40
2022-12-16T18:53:48.222Z,91.80
2022-12-16T18:56:34.758Z,90.50
2022-12-16T18:59:21.254Z,94.00
2022-12-16T19:02:07.919Z,92.70
2022-12-16T19:04:54.589Z,92.90
2022-12-16T19:07:41.203Z,92.60
2022-12-16T19:10:27.782Z,91.10
2022-12-16T19:13:15.826Z,93.10
2022-12-16T19:16:15.241Z,94.80
2022-12-16T19:19:02.384Z,89.70
2022-12-16T19:21:56.143Z,85.30
2022-12-16T19:24:43.449Z,86.50
2022-12-16T19:27:30.130Z,90.90
2022-12-16T19:30:16.897Z,87.60
2022-12-16T19:33:06.944Z,89.90
2022-12-16T19:35:53.719Z,90.90
2022-12-16T19:38:40.505Z,89.30
2022-12-16T19:41:33.526Z,93.00
2022-12-16T19:44:20.800Z,86.90
2022-12-16T19:47:07.959Z,91.30
2022-12-16T19:49:56.084Z,87.90
2022-12-16T19:52:42.889Z,88.80
2022-12-16T19:55:29.513Z,89.70
2022-12-16T19:58:15.973Z,94.90
2022-12-16T20:01:02.779Z,91.10
2022-12-16T20:03:49.890Z,93.20
2022-12-16T20:06:36.932Z,90.60
2022-12-16T20:09:23.599Z,91.10
2022-12-16T20:12:10.710Z,88.20
2022-12-16T20:14:57.221Z,94.20
2022-12-16T20:17:43.622Z,90.80
2022-12-16T20:20:30.275Z,91.90
2022-12-16T20:23:16.698Z,91.80
2022-12-16T20:26:03.153Z,95.70
2022-12-16T20:28:49.638Z,93.20
2022-12-16T20:31:36.195Z,95.90
2022-12-16T20:34:22.743Z,92.70
2022-12-16T20:37:09.297Z,95.40
2022-12-16T20:43:02.713Z,89.30
2022-12-16T20:45:49.463Z,91.40
2022-12-16T20:48:38.108Z,92.50
2022-12-16T20:51:26.990Z,89.80
2022-12-16T20:54:14.201Z,95.70
2022-12-16T20:57:00.875Z,92.00
2022-12-16T20:59:47.323Z,96.40
2022-12-16T21:02:34.443Z,90.10
2022-12-16T21:05:21.933Z,93.00
2022-12-16T21:08:22.171Z,96.00
2022-12-16T21:11:08.888Z,93.40
2022-12-16T21:13:56.538Z,98.30
2022-12-16T21:14:42.682Z,89.40
2022-12-16T21:16:43.170Z,98.90
2022-12-16T21:22:36.299Z,95.90
2022-12-16T21:25:24.979Z,95.50
2022-12-16T21:28:16.091Z,96.40
2022-12-16T21:31:02.548Z,96.70
2022-12-16T21:33:49.488Z,92.40
2022-12-16T21:36:36.112Z,93.10
2022-12-16T21:39:22.660Z,94.00
2022-12-16T21:42:10.610Z,97.90
2022-12-16T21:44:57.089Z,96.60
2022-12-16T21:47:43.499Z,95.20
2022-12-16T21:50:30.050Z,94.00
2022-12-16T21:53:16.621Z,88.70
2022-12-16T21:56:02.938Z,91.60
2022-12-16T21:58:49.350Z,89.90
2022-12-16T22:01:35.875Z,90.20
2022-12-16T22:04:21.957Z,93.70
2022-12-16T22:07:09.529Z,93.30
2022-12-16T22:09:56.333Z,89.30
2022-12-16T22:12:42.939Z,92.40
2022-12-16T22:15:29.459Z,85.10
2022-12-16T22:18:16.145Z,94.30
2022-12-16T22:21:02.639Z,90.50
2022-12-16T22:23:49.052Z,88.80
2022-12-16T22:26:35.678Z,90.80
2022-12-16T22:29:22.154Z,94.00
2022-12-16T22:32:08.740Z,91.10
2022-12-16T22:34:56.326Z,95.60
2022-12-16T22:37:42.826Z,90.30
2022-12-16T22:40:29.279Z,97.70
2022-12-16T22:43:15.670Z,98.40
2022-12-16T22:46:02.136Z,98.30
2022-12-16T22:48:48.639Z,94.40
2022-12-16T22:51:35.938Z,92.50
2022-12-16T22:54:22.405Z,98.50
2022-12-16T22:57:08.857Z,99.40
2022-12-16T22:59:56.304Z,103.20
2022-12-16T23:02:43.327Z,98.90
2022-12-16T23:05:29.813Z,103.80
2022-12-16T23:08:16.411Z,104.20
2022-12-16T23:11:02.844Z,106.40
2022-12-16T23:13:49.288Z,102.70
2022-12-16T23:16:35.925Z,106.90
2022-12-16T23:19:22.517Z,101.40
2022-12-16T23:22:09.201Z,109.60
2022-12-16T23:24:56.189Z,110.50
2022-12-16T23:27:43.690Z,115.10
2022-12-16T23:30:30.132Z,111.40
2022-12-16T23:33:17.846Z,114.50
2022-12-16T23:36:04.412Z,109.00
2022-12-16T23:38:50.936Z,110.00
2022-12-16T23:41:39.937Z,104.60
2022-12-16T23:44:26.430Z,109.60
2022-12-16T23:47:12.875Z,106.40
2022-12-16T23:49:59.311Z,101.90
2022-12-16T23:52:45.944Z,101.60
2022-12-16T23:55:32.457Z,101.50
2022-12-16T23:58:19.956Z,101.80
